createdAt,value
2018-11-12T00:00:18.388Z,10.40
2018-11-12T00:02:55.024Z,10.50
2018-11-12T00:05:23.741Z,10.50
2018-11-12T00:07:52.493Z,10.40
2018-11-12T00:10:21.302Z,10.40
2018-11-12T00:12:49.989Z,10.40
2018-11-12T00:15:18.588Z,10.50
2018-11-12T00:17:47.218Z,10.50
2018-11-12T00:20:16.687Z,10.50
2018-11-12T00:22:45.833Z,10.50
2018-11-12T00:25:14.651Z,10.50
2018-11-12T00:27:43.602Z,10.50
2018-11-12T00:30:16.224Z,10.50
2018-11-12T00:32:45.713Z,10.50
2018-11-12T00:35:14.329Z,10.50
2018-11-12T00:37:43.823Z,10.60
2018-11-12T00:40:13.875Z,10.60
2018-11-12T00:42:43.155Z,10.60
2018-11-12T00:45:12.286Z,10.60
2018-11-12T00:47:41.206Z,10.60
2018-11-12T00:50:11.457Z,10.60
2018-11-12T00:52:40.444Z,10.60
2018-11-12T00:55:11.026Z,10.60
2018-11-12T00:57:40.270Z,10.60
2018-11-12T01:00:13.182Z,10.60
2018-11-12T01:02:44.027Z,10.60
2018-11-12T01:05:13.027Z,10.60
2018-11-12T01:07:41.889Z,10.70
2018-11-12T01:10:12.516Z,10.70
2018-11-12T01:12:41.930Z,10.70
2018-11-12T01:15:12.541Z,10.70
2018-11-12T01:17:41.593Z,10.70
2018-11-12T01:20:11.653Z,10.70
2018-11-12T01:22:40.647Z,10.70
2018-11-12T01:25:10.715Z,10.70
2018-11-12T01:27:40.551Z,10.70
2018-11-12T01:30:11.654Z,10.70
2018-11-12T01:32:40.918Z,10.70
2018-11-12T01:35:11.110Z,10.60
2018-11-12T01:37:40.237Z,10.60
2018-11-12T01:40:10.618Z,10.60
2018-11-12T01:42:39.730Z,10.60
2018-11-12T01:45:11.606Z,10.60
2018-11-12T01:47:40.536Z,10.60
2018-11-12T01:50:10.644Z,10.60
2018-11-12T01:52:39.687Z,10.60
2018-11-12T01:55:10.149Z,10.60
2018-11-12T01:57:39.040Z,10.60
2018-11-12T02:00:12.825Z,10.60
2018-11-12T02:02:42.418Z,10.50
2018-11-12T02:05:11.417Z,10.60
2018-11-12T02:07:40.423Z,10.60
2018-11-12T02:10:10.951Z,10.60
2018-11-12T02:12:40.346Z,10.50
2018-11-12T02:15:11.639Z,10.60
2018-11-12T02:17:40.620Z,10.50
2018-11-12T02:20:11.235Z,10.60
2018-11-12T02:22:40.120Z,10.60
2018-11-12T02:25:10.221Z,10.60
2018-11-12T02:27:39.233Z,10.60
2018-11-12T02:30:11.467Z,10.60
2018-11-12T02:32:40.617Z,10.60
2018-11-12T02:35:09.980Z,10.60
2018-11-12T02:37:39.418Z,10.60
2018-11-12T02:40:10.457Z,10.60
2018-11-12T02:42:39.479Z,10.60
2018-11-12T02:45:09.470Z,10.60
2018-11-12T02:47:38.499Z,10.60
2018-11-12T02:50:08.725Z,10.60
2018-11-12T02:52:37.799Z,10.70
2018-11-12T02:55:08.315Z,10.70
2018-11-12T02:57:37.399Z,10.70
2018-11-12T03:00:12.971Z,10.70
2018-11-12T03:02:42.102Z,10.70
2018-11-12T03:05:11.570Z,10.70
2018-11-12T03:07:40.657Z,10.70
2018-11-12T03:10:19.047Z,10.70
2018-11-12T03:12:47.728Z,10.70
2018-11-12T03:15:16.941Z,10.60
2018-11-12T03:17:46.152Z,10.60
2018-11-12T03:20:17.123Z,10.70
2018-11-12T03:22:45.763Z,10.60
2018-11-12T03:25:15.683Z,10.60
2018-11-12T03:27:45.076Z,10.60
2018-11-12T03:30:14.807Z,10.60
2018-11-12T03:32:44.129Z,10.60
2018-11-12T03:35:13.333Z,10.60
2018-11-12T03:37:43.226Z,10.70
2018-11-12T03:40:14.268Z,10.60
2018-11-12T03:42:43.003Z,10.60
2018-11-12T03:45:14.562Z,10.60
2018-11-12T03:47:43.241Z,10.60
2018-11-12T03:50:17.117Z,10.70
2018-11-12T03:52:45.877Z,10.70
2018-11-12T03:55:15.925Z,10.60
2018-11-12T03:57:44.542Z,10.60
2018-11-12T04:00:15.359Z,10.60
2018-11-12T04:02:43.991Z,10.60
2018-11-12T04:05:12.802Z,10.60
2018-11-12T04:07:42.166Z,10.60
2018-11-12T04:10:13.350Z,10.60
2018-11-12T04:12:42.150Z,10.60
2018-11-12T04:15:14.160Z,10.60
2018-11-12T04:17:42.916Z,10.60
2018-11-12T04:20:14.735Z,10.60
2018-11-12T04:22:48.707Z,10.60
2018-11-12T04:25:17.373Z,10.60
2018-11-12T04:27:46.086Z,10.50
2018-11-12T04:30:15.670Z,10.60
2018-11-12T04:32:45.422Z,10.50
2018-11-12T04:35:14.066Z,10.50
2018-11-12T04:37:43.284Z,10.50
2018-11-12T04:40:14.230Z,10.50
2018-11-12T04:42:42.954Z,10.50
2018-11-12T04:45:19.181Z,10.50
2018-11-12T04:47:48.618Z,10.50
2018-11-12T04:50:19.127Z,10.50
2018-11-12T04:52:47.936Z,10.50
2018-11-12T04:55:17.966Z,10.40
2018-11-12T04:57:46.869Z,10.50
2018-11-12T05:00:17.732Z,10.40
2018-11-12T05:02:46.367Z,10.50
2018-11-12T05:05:16.262Z,10.40
2018-11-12T05:07:45.190Z,10.50
2018-11-12T05:10:15.190Z,10.50
2018-11-12T05:12:44.388Z,10.50
2018-11-12T05:15:14.976Z,10.50
2018-11-12T05:17:43.667Z,10.50
2018-11-12T05:20:14.862Z,10.50
2018-11-12T05:22:43.759Z,10.50
2018-11-12T05:25:12.514Z,10.50
2018-11-12T05:27:41.383Z,10.50
2018-11-12T05:30:16.267Z,10.50
2018-11-12T05:32:44.890Z,10.50
2018-11-12T05:35:14.656Z,10.50
2018-11-12T05:37:43.654Z,10.50
2018-11-12T05:40:16.325Z,10.50
2018-11-12T05:42:45.025Z,10.50
2018-11-12T05:45:14.574Z,10.40
2018-11-12T05:47:43.383Z,10.50
2018-11-12T05:50:16.962Z,10.50
2018-11-12T05:52:47.674Z,10.40
2018-11-12T05:55:17.518Z,10.50
2018-11-12T05:57:46.621Z,10.50
2018-11-12T06:00:17.993Z,10.50
2018-11-12T06:02:46.590Z,10.40
2018-11-12T06:05:16.484Z,10.40
2018-11-12T06:07:45.152Z,10.40
2018-11-12T06:10:22.243Z,10.50
2018-11-12T06:12:51.199Z,10.40
2018-11-12T06:15:19.918Z,10.40
2018-11-12T06:17:49.395Z,10.50
2018-11-12T06:20:20.113Z,10.50
2018-11-12T06:22:48.853Z,10.40
2018-11-12T06:25:19.611Z,10.40
2018-11-12T06:27:48.507Z,10.40
2018-11-12T06:30:19.048Z,10.40
2018-11-12T06:32:47.771Z,10.40
2018-11-12T06:35:16.863Z,10.40
2018-11-12T06:37:46.271Z,10.40
2018-11-12T06:40:16.875Z,10.40
2018-11-12T06:42:45.666Z,10.40
2018-11-12T06:45:17.314Z,10.40
2018-11-12T06:47:46.916Z,10.40
2018-11-12T06:50:17.027Z,10.40
2018-11-12T06:52:45.706Z,10.50
2018-11-12T06:55:15.717Z,10.40
2018-11-12T06:57:44.711Z,10.40
2018-11-12T07:00:16.427Z,10.40
2018-11-12T07:02:45.107Z,10.40
2018-11-12T07:05:14.330Z,10.40
2018-11-12T07:07:42.991Z,10.40
2018-11-12T07:10:16.087Z,10.50
2018-11-12T07:12:45.484Z,10.40
2018-11-12T07:15:15.610Z,10.50
2018-11-12T07:17:44.287Z,10.50
2018-11-12T07:20:15.478Z,10.50
2018-11-12T07:22:44.427Z,10.50
2018-11-12T07:25:13.688Z,10.60
2018-11-12T07:27:42.378Z,10.60
2018-11-12T07:30:14.972Z,10.60
2018-11-12T07:32:43.732Z,10.70
2018-11-12T07:35:14.092Z,10.60
2018-11-12T07:37:43.989Z,10.70
2018-11-12T07:40:13.478Z,10.70
2018-11-12T07:42:42.409Z,10.70
2018-11-12T07:45:14.212Z,10.70
2018-11-12T07:47:43.846Z,10.70
2018-11-12T07:50:14.180Z,10.70
2018-11-12T07:52:42.949Z,10.70
2018-11-12T07:55:15.565Z,10.70
2018-11-12T07:57:45.071Z,10.70
2018-11-12T08:00:19.750Z,10.80
2018-11-12T08:02:49.341Z,10.80
2018-11-12T08:05:18.133Z,10.80
2018-11-12T08:07:47.086Z,10.80
2018-11-12T08:10:16.979Z,10.80
2018-11-12T08:12:46.002Z,10.90
2018-11-12T08:15:15.910Z,10.90
2018-11-12T08:17:44.642Z,10.90
2018-11-12T08:20:14.723Z,10.90
2018-11-12T08:22:44.329Z,11.00
2018-11-12T08:25:13.266Z,11.00
2018-11-12T08:27:42.785Z,11.00
2018-11-12T08:30:29.946Z,11.10
2018-11-12T08:32:59.690Z,11.10
2018-11-12T08:35:28.349Z,11.20
2018-11-12T08:37:57.523Z,11.20
2018-11-12T08:40:27.588Z,11.30
2018-11-12T08:42:56.314Z,11.40
2018-11-12T08:45:25.082Z,11.40
2018-11-12T08:47:54.961Z,11.50
2018-11-12T08:50:24.967Z,11.60
2018-11-12T08:52:54.355Z,11.70
2018-11-12T08:55:24.485Z,11.80
2018-11-12T08:57:54.493Z,11.90
2018-11-12T09:00:24.132Z,12.00
2018-11-12T09:02:52.829Z,12.10
2018-11-12T09:05:22.810Z,12.20
2018-11-12T09:07:53.158Z,12.30
2018-11-12T09:10:23.886Z,12.40
2018-11-12T09:12:52.568Z,12.50
2018-11-12T09:15:21.314Z,12.60
2018-11-12T09:17:50.234Z,12.60
2018-11-12T09:20:20.404Z,12.80
2018-11-12T09:22:49.014Z,12.80
2018-11-12T09:25:19.957Z,13.00
2018-11-12T09:27:48.780Z,13.10
2018-11-12T09:30:19.082Z,13.20
2018-11-12T09:32:48.017Z,13.30
2018-11-12T09:35:21.943Z,13.40
2018-11-12T09:37:51.574Z,13.40
2018-11-12T09:40:23.448Z,13.40
2018-11-12T09:42:53.927Z,13.50
2018-11-12T09:45:22.579Z,13.50
2018-11-12T09:47:51.232Z,13.50
2018-11-12T09:50:21.955Z,13.70
2018-11-12T09:52:51.848Z,13.90
2018-11-12T09:55:21.419Z,14.00
2018-11-12T09:57:51.945Z,14.20
2018-11-12T10:00:21.023Z,14.30
2018-11-12T10:02:50.834Z,14.70
2018-11-12T10:05:20.365Z,15.10
2018-11-12T10:07:51.432Z,15.50
2018-11-12T10:10:39.497Z,15.80
2018-11-12T10:13:10.178Z,15.90
2018-11-12T10:15:39.261Z,15.90
2018-11-12T10:18:09.207Z,15.90
2018-11-12T10:20:36.029Z,15.90
2018-11-12T10:23:05.197Z,15.80
2018-11-12T10:25:34.280Z,15.80
2018-11-12T10:28:04.760Z,15.80
2018-11-12T10:30:33.608Z,15.90
2018-11-12T10:33:10.678Z,16.00
2018-11-12T10:35:39.673Z,16.10
2018-11-12T10:38:09.344Z,16.40
2018-11-12T10:40:38.183Z,16.60
2018-11-12T10:43:07.211Z,16.90
2018-11-12T10:45:36.126Z,16.80
2018-11-12T10:48:05.793Z,16.90
2018-11-12T10:50:34.841Z,16.80
2018-11-12T10:53:03.658Z,17.00
2018-11-12T10:55:32.731Z,17.30
2018-11-12T10:58:01.286Z,17.50
2018-11-12T11:00:37.534Z,17.50
2018-11-12T11:03:14.855Z,17.50
2018-11-12T11:05:50.467Z,17.70
2018-11-12T11:08:19.330Z,17.90
2018-11-12T11:10:48.241Z,17.50
2018-11-12T11:13:16.916Z,17.30
2018-11-12T11:15:46.360Z,17.20
2018-11-12T11:18:15.018Z,17.10
2018-11-12T11:20:43.746Z,17.00
2018-11-12T11:23:12.562Z,16.90
2018-11-12T11:25:41.690Z,16.80
2018-11-12T11:28:10.679Z,16.80
2018-11-12T11:30:39.809Z,16.70
2018-11-12T11:33:08.861Z,16.60
2018-11-12T11:35:42.002Z,16.60
2018-11-12T11:38:11.841Z,16.70
2018-11-12T11:40:42.365Z,16.70
2018-11-12T11:43:11.194Z,16.80
2018-11-12T11:45:40.040Z,16.90
2018-11-12T11:48:09.048Z,17.20
2018-11-12T11:50:38.167Z,17.50
2018-11-12T11:53:07.146Z,18.20
2018-11-12T11:55:36.299Z,18.80
2018-11-12T11:58:06.629Z,19.30
2018-11-12T12:00:35.879Z,19.80
2018-11-12T12:03:05.423Z,20.30
2018-11-12T12:05:34.901Z,20.80
2018-11-12T12:08:04.095Z,21.20
2018-11-12T12:10:33.849Z,21.00
2018-11-12T12:13:03.129Z,20.20
2018-11-12T12:15:31.819Z,19.60
2018-11-12T12:18:01.133Z,19.00
2018-11-12T12:20:29.827Z,18.70
2018-11-12T12:22:58.958Z,18.50
2018-11-12T12:25:28.123Z,18.30
2018-11-12T12:27:57.768Z,18.20
2018-11-12T12:30:28.024Z,18.10
2018-11-12T12:32:57.656Z,18.10
2018-11-12T12:35:26.458Z,18.10
2018-11-12T12:37:55.440Z,18.10
2018-11-12T12:40:24.994Z,18.00
2018-11-12T12:42:53.793Z,18.00
2018-11-12T12:45:24.037Z,18.10
2018-11-12T12:47:53.092Z,18.10
2018-11-12T12:50:21.814Z,18.20
2018-11-12T12:52:51.318Z,18.20
2018-11-12T12:55:20.031Z,18.20
2018-11-12T12:57:50.384Z,18.10
2018-11-12T13:00:28.432Z,18.10
2018-11-12T13:02:57.345Z,18.00
2018-11-12T13:05:26.259Z,17.90
2018-11-12T13:07:55.038Z,17.80
2018-11-12T13:10:24.522Z,17.70
2018-11-12T13:12:53.315Z,17.60
2018-11-12T13:15:22.322Z,17.50
2018-11-12T13:17:51.767Z,17.00
2018-11-12T13:20:21.916Z,16.20
2018-11-12T13:22:50.615Z,15.70
2018-11-12T13:25:19.305Z,15.40
2018-11-12T13:27:48.398Z,15.10
2018-11-12T13:30:18.658Z,14.80
2018-11-12T13:32:47.706Z,14.50
2018-11-12T13:35:18.096Z,14.30
2018-11-12T13:37:46.798Z,14.30
2018-11-12T13:40:24.274Z,14.10
2018-11-12T13:42:54.459Z,14.00
2018-11-12T13:45:23.480Z,13.80
2018-11-12T13:47:52.457Z,13.70
2018-11-12T13:50:22.455Z,13.60
2018-11-12T13:52:51.911Z,13.50
2018-11-12T13:55:21.814Z,13.40
2018-11-12T13:57:50.611Z,13.30
2018-11-12T14:00:20.727Z,13.20
2018-11-12T14:02:50.116Z,13.20
2018-11-12T14:05:19.963Z,13.10
2018-11-12T14:07:48.774Z,13.10
2018-11-12T14:10:18.901Z,13.00
2018-11-12T14:12:50.130Z,13.00
2018-11-12T14:15:20.475Z,13.00
2018-11-12T14:17:49.805Z,13.00
2018-11-12T14:20:19.613Z,12.90
2018-11-12T14:22:48.307Z,12.90
2018-11-12T14:25:19.627Z,12.80
2018-11-12T14:27:50.003Z,12.80
2018-11-12T14:30:20.129Z,12.70
2018-11-12T14:32:48.938Z,12.80
2018-11-12T14:35:17.773Z,12.70
2018-11-12T14:37:46.853Z,12.70
2018-11-12T14:40:16.663Z,12.70
2018-11-12T14:42:46.040Z,12.60
2018-11-12T14:45:22.459Z,12.60
2018-11-12T14:47:51.498Z,12.50
2018-11-12T14:50:21.346Z,12.50
2018-11-12T14:52:49.951Z,12.50
2018-11-12T14:55:19.047Z,12.40
2018-11-12T14:57:47.940Z,12.40
2018-11-12T15:00:21.044Z,12.30
2018-11-12T15:02:50.028Z,12.40
2018-11-12T15:05:21.904Z,12.40
2018-11-12T15:07:50.716Z,12.30
2018-11-12T15:10:19.386Z,12.30
2018-11-12T15:12:48.636Z,12.30
2018-11-12T15:15:17.478Z,12.30
2018-11-12T15:17:46.162Z,12.30
2018-11-12T15:20:16.282Z,12.40
2018-11-12T15:22:45.428Z,12.30
2018-11-12T15:25:19.628Z,12.30
2018-11-12T15:27:48.400Z,12.20
2018-11-12T15:30:19.164Z,12.20
2018-11-12T15:32:49.074Z,12.20
2018-11-12T15:35:17.827Z,12.20
2018-11-12T15:37:47.327Z,12.10
2018-11-12T15:40:16.254Z,12.10
2018-11-12T15:42:45.050Z,12.00
2018-11-12T15:45:16.469Z,12.00
2018-11-12T15:47:46.039Z,11.90
2018-11-12T15:50:17.291Z,11.90
2018-11-12T15:52:46.139Z,11.90
2018-11-12T15:55:15.829Z,11.90
2018-11-12T15:57:43.843Z,11.80
2018-11-12T16:00:15.148Z,11.80
2018-11-12T16:02:43.889Z,11.80
2018-11-12T16:05:13.422Z,11.80
2018-11-12T16:07:42.616Z,11.80
2018-11-12T16:10:15.802Z,11.70
2018-11-12T16:12:44.893Z,11.70
2018-11-12T16:15:14.969Z,11.70
2018-11-12T16:17:44.032Z,11.70
2018-11-12T16:20:18.446Z,11.70
2018-11-12T16:22:47.999Z,11.70
2018-11-12T16:25:17.372Z,11.70
2018-11-12T16:27:46.257Z,11.60
2018-11-12T16:30:15.240Z,11.60
2018-11-12T16:32:44.619Z,11.50
2018-11-12T16:35:15.058Z,11.50
2018-11-12T16:37:44.719Z,11.50
2018-11-12T16:40:14.839Z,11.50
2018-11-12T16:42:44.824Z,11.50
2018-11-12T16:45:14.168Z,11.50
2018-11-12T16:47:43.610Z,11.40
2018-11-12T16:50:13.424Z,11.40
2018-11-12T16:52:43.189Z,11.40
2018-11-12T16:55:15.394Z,11.40
2018-11-12T16:57:45.462Z,11.40
2018-11-12T17:00:15.645Z,11.40
2018-11-12T17:02:46.969Z,11.30
2018-11-12T17:05:17.575Z,11.30
2018-11-12T17:07:47.382Z,11.30
2018-11-12T17:10:18.009Z,11.30
2018-11-12T17:12:48.443Z,11.30
2018-11-12T17:15:18.765Z,11.30
2018-11-12T17:17:47.626Z,11.20
2018-11-12T17:20:19.181Z,11.20
2018-11-12T17:22:48.416Z,11.20
2018-11-12T17:25:18.831Z,11.20
2018-11-12T17:27:48.376Z,11.20
2018-11-12T17:30:19.096Z,11.20
2018-11-12T17:32:48.567Z,11.10
2018-11-12T17:35:18.364Z,11.20
2018-11-12T17:37:47.034Z,11.20
2018-11-12T17:40:17.427Z,11.10
2018-11-12T17:42:47.027Z,11.10
2018-11-12T17:45:17.045Z,11.10
2018-11-12T17:47:47.022Z,11.10
2018-11-12T17:50:15.817Z,11.10
2018-11-12T17:52:44.571Z,11.10
2018-11-12T17:55:13.581Z,11.00
2018-11-12T17:57:42.397Z,11.00
2018-11-12T18:00:16.657Z,11.10
2018-11-12T18:02:45.441Z,11.10
2018-11-12T18:05:14.265Z,11.10
2018-11-12T18:07:43.746Z,11.10
2018-11-12T18:10:13.463Z,11.10
2018-11-12T18:12:42.392Z,11.00
2018-11-12T18:15:19.154Z,11.10
2018-11-12T18:17:47.855Z,11.10
2018-11-12T18:20:19.103Z,11.10
2018-11-12T18:22:48.211Z,11.10
2018-11-12T18:25:18.811Z,11.00
2018-11-12T18:27:47.557Z,11.00
2018-11-12T18:30:19.638Z,11.00
2018-11-12T18:32:50.383Z,11.00
2018-11-12T18:35:19.969Z,11.00
2018-11-12T18:37:48.724Z,11.00
2018-11-12T18:40:19.019Z,11.00
2018-11-12T18:42:48.078Z,11.00
2018-11-12T18:45:18.103Z,11.00
2018-11-12T18:47:47.113Z,10.90
2018-11-12T18:50:18.267Z,10.90
2018-11-12T18:52:48.190Z,11.00
2018-11-12T18:55:16.790Z,10.90
2018-11-12T18:57:47.782Z,10.90
2018-11-12T19:00:19.175Z,10.90
2018-11-12T19:02:48.321Z,10.90
2018-11-12T19:05:19.729Z,10.90
2018-11-12T19:07:49.834Z,10.90
2018-11-12T19:10:20.122Z,10.90
2018-11-12T19:12:50.053Z,10.90
2018-11-12T19:15:20.126Z,10.90
2018-11-12T19:17:55.794Z,10.80
2018-11-12T19:20:24.694Z,10.80
2018-11-12T19:22:53.810Z,10.80
2018-11-12T19:25:22.614Z,10.80
2018-11-12T19:27:52.179Z,10.70
2018-11-12T19:30:22.398Z,10.80
2018-11-12T19:32:51.216Z,10.70
2018-11-12T19:35:21.314Z,10.70
2018-11-12T19:37:50.078Z,10.70
2018-11-12T19:40:20.181Z,10.70
2018-11-12T19:42:50.731Z,10.70
2018-11-12T19:45:20.493Z,10.70
2018-11-12T19:47:50.698Z,10.70
2018-11-12T19:50:20.655Z,10.70
2018-11-12T19:52:50.570Z,10.70
2018-11-12T19:55:19.843Z,10.70
2018-11-12T19:57:48.903Z,10.70
2018-11-12T20:00:19.671Z,10.70
2018-11-12T20:02:49.631Z,10.70
2018-11-12T20:05:18.771Z,10.70
2018-11-12T20:07:47.864Z,10.70
2018-11-12T20:10:18.151Z,10.80
2018-11-12T20:12:47.058Z,10.80
2018-11-12T20:15:18.079Z,10.80
2018-11-12T20:17:48.604Z,10.80
2018-11-12T20:20:18.923Z,10.80
2018-11-12T20:22:48.162Z,10.80
2018-11-12T20:25:18.381Z,10.80
2018-11-12T20:27:47.594Z,10.80
2018-11-12T20:30:19.951Z,10.80
2018-11-12T20:32:49.246Z,10.80
2018-11-12T20:35:17.848Z,10.80
2018-11-12T20:37:46.503Z,10.80
2018-11-12T20:40:15.926Z,10.80
2018-11-12T20:42:45.672Z,10.80
2018-11-12T20:45:15.657Z,10.80
2018-11-12T20:47:45.619Z,10.80
2018-11-12T20:50:15.214Z,10.80
2018-11-12T20:52:44.246Z,10.80
2018-11-12T20:55:14.165Z,10.80
2018-11-12T20:57:44.101Z,10.80
2018-11-12T21:00:24.234Z,10.70
2018-11-12T21:02:53.508Z,10.80
2018-11-12T21:05:23.490Z,10.70
2018-11-12T21:07:52.099Z,10.80
2018-11-12T21:10:21.082Z,10.80
2018-11-12T21:12:50.120Z,10.80
2018-11-12T21:15:19.674Z,10.80
2018-11-12T21:17:48.347Z,10.70
2018-11-12T21:20:18.663Z,10.70
2018-11-12T21:22:47.477Z,10.70
2018-11-12T21:25:17.421Z,10.80
2018-11-12T21:27:46.142Z,10.80
2018-11-12T21:30:16.934Z,10.70
2018-11-12T21:32:46.054Z,10.70
2018-11-12T21:35:14.775Z,10.70
2018-11-12T21:37:43.777Z,10.70
2018-11-12T21:40:16.701Z,10.70
2018-11-12T21:42:45.404Z,10.70
2018-11-12T21:45:15.823Z,10.70
2018-11-12T21:47:44.909Z,10.70
2018-11-12T21:50:16.409Z,10.60
2018-11-12T21:52:45.266Z,10.60
2018-11-12T21:55:14.306Z,10.60
2018-11-12T21:57:43.518Z,10.50
2018-11-12T22:00:19.633Z,10.50
2018-11-12T22:02:49.577Z,10.50
2018-11-12T22:05:18.281Z,10.50
2018-11-12T22:07:46.973Z,10.50
2018-11-12T22:10:16.456Z,10.50
2018-11-12T22:12:46.644Z,10.50
2018-11-12T22:15:15.489Z,10.40
2018-11-12T22:17:44.349Z,10.40
2018-11-12T22:20:14.196Z,10.40
2018-11-12T22:22:43.313Z,10.40
2018-11-12T22:25:16.157Z,10.30
2018-11-12T22:27:45.951Z,10.30
2018-11-12T22:30:15.815Z,10.30
2018-11-12T22:32:46.101Z,10.30
2018-11-12T22:35:15.135Z,10.30
2018-11-12T22:37:44.603Z,10.20
2018-11-12T22:40:14.304Z,10.30
2018-11-12T22:42:44.129Z,10.20
2018-11-12T22:45:14.571Z,10.20
2018-11-12T22:47:44.049Z,10.20
2018-11-12T22:50:13.286Z,10.20
2018-11-12T22:52:42.970Z,10.20
2018-11-12T22:55:12.989Z,10.20
2018-11-12T22:57:41.959Z,10.20
2018-11-12T23:00:18.257Z,10.20
2018-11-12T23:02:47.129Z,10.10
2018-11-12T23:05:16.334Z,10.10
2018-11-12T23:07:45.942Z,10.10
2018-11-12T23:10:14.952Z,10.00
2018-11-12T23:12:43.876Z,10.00
2018-11-12T23:15:13.174Z,9.90
2018-11-12T23:17:42.199Z,9.90
2018-11-12T23:20:16.339Z,9.90
2018-11-12T23:22:45.860Z,9.90
2018-11-12T23:25:14.593Z,9.90
2018-11-12T23:27:44.385Z,9.90
2018-11-12T23:30:14.490Z,9.90
2018-11-12T23:32:43.437Z,9.90
2018-11-12T23:35:13.705Z,9.90
2018-11-12T23:37:43.218Z,9.90
2018-11-12T23:40:12.573Z,9.90
2018-11-12T23:42:41.678Z,9.90
2018-11-12T23:45:10.524Z,9.90
2018-11-12T23:47:39.770Z,9.90
2018-11-12T23:50:13.064Z,9.80
2018-11-12T23:52:42.201Z,9.80
2018-11-12T23:55:11.525Z,9.80
2018-11-12T23:57:40.296Z,9.80
